Time;durP1;ratioP1;P1;durP2;ratioP2;P2;SDS_P1;SDS_P2;PMS_P1;PMS_P2;Temp;Humidity;BMP_temperature;BMP_pressure;BME280_temperature;BME280_humidity;BME280_pressure;Samples;Min_cycle;Max_cycle;Signal;HPM_P1;HPM_P2
2021/11/16 00:01:54;;;;;;;54.30;15.43;;;;;;;4.81;100.00;-19292.78;5024342;28;20037;-75
2021/11/16 00:04:20;;;;;;;48.43;15.90;;;;;;;4.88;100.00;-19294.50;5022626;28;20637;-74
2021/11/16 00:06:51;;;;;;;44.10;15.30;;;;;;;4.82;100.00;-19292.91;5024147;28;20516;-74
2021/11/16 00:09:16;;;;;;;42.30;13.63;;;;;;;4.88;100.00;-19294.50;5024916;28;20902;-74
2021/11/16 00:11:42;;;;;;;36.03;12.07;;;;;;;4.88;100.00;-19294.63;5023937;28;20057;-73
2021/11/16 00:14:08;;;;;;;39.27;12.47;;;;;;;4.89;100.00;-19294.78;5024889;28;20027;-73
2021/11/16 00:16:33;;;;;;;51.10;15.53;;;;;;;4.80;100.00;-19292.38;5023965;28;20130;-74
2021/11/16 00:19:01;;;;;;;52.60;14.67;;;;;;;4.86;100.00;-19293.97;5024415;28;20041;-74
2021/11/16 00:21:27;;;;;;;36.87;12.37;;;;;;;4.84;100.00;-19293.56;5024532;28;20041;-74
2021/11/16 00:23:56;;;;;;;47.47;15.80;;;;;;;4.76;100.00;-19291.47;5024471;28;20510;-75
2021/11/16 00:26:22;;;;;;;43.17;14.60;;;;;;;4.75;100.00;-19291.19;5018958;28;20647;-74
2021/11/16 00:28:48;;;;;;;41.60;14.07;;;;;;;4.81;100.00;-19292.66;5023503;28;20703;-75
2021/11/16 00:31:14;;;;;;;48.30;14.70;;;;;;;4.79;100.00;-19292.13;5022388;28;20033;-74
2021/11/16 00:33:40;;;;;;;48.17;15.03;;;;;;;4.74;100.00;-19290.81;5023740;28;20021;-74
2021/11/16 00:36:05;;;;;;;45.20;13.87;;;;;;;4.86;100.00;-19293.97;5021843;28;20528;-74
2021/11/16 00:38:31;;;;;;;48.23;15.13;;;;;;;4.88;100.00;-19294.63;5023402;28;20104;-73
2021/11/16 00:40:57;;;;;;;46.33;14.90;;;;;;;4.87;100.00;-19294.25;5024078;28;20026;-74
2021/11/16 00:43:22;;;;;;;49.03;15.33;;;;;;;4.86;100.00;-19293.97;5024177;28;20036;-74
2021/11/16 00:45:48;;;;;;;48.27;15.80;;;;;;;4.81;100.00;-19292.66;5023581;28;20025;-74
2021/11/16 00:48:16;;;;;;;46.50;14.90;;;;;;;4.77;100.00;-19291.59;5023907;28;20038;-74
2021/11/16 00:50:44;;;;;;;44.27;14.20;;;;;;;4.84;100.00;-19293.56;5023572;28;20034;-74
2021/11/16 00:53:10;;;;;;;40.33;13.63;;;;;;;4.88;100.00;-19294.50;5023874;28;20021;-73
2021/11/16 00:55:36;;;;;;;39.83;11.53;;;;;;;4.88;100.00;-19294.50;5023676;28;20101;-73
2021/11/16 00:58:02;;;;;;;44.20;14.67;;;;;;;4.80;100.00;-19292.38;5023512;28;20029;-74
2021/11/16 01:00:28;;;;;;;41.27;13.87;;;;;;;4.81;100.00;-19292.78;5023159;28;20112;-74
2021/11/16 01:02:55;;;;;;;42.23;14.27;;;;;;;4.75;100.00;-19291.06;5023547;28;20192;-75
2021/11/16 01:05:21;;;;;;;43.03;14.47;;;;;;;4.78;100.00;-19292.00;5023055;28;20021;-74
2021/11/16 01:07:46;;;;;;;39.33;13.33;;;;;;;4.76;100.00;-19291.31;5023358;28;20060;-74
2021/11/16 01:10:15;;;;;;;39.47;13.00;;;;;;;4.82;100.00;-19292.91;5023458;28;20128;-74
2021/11/16 01:12:41;;;;;;;37.83;12.93;;;;;;;4.78;100.00;-19291.84;5023127;28;20021;-74
2021/11/16 01:15:09;;;;;;;38.87;13.10;;;;;;;4.81;100.00;-19292.78;5022888;28;20013;-73
2021/11/16 01:17:35;;;;;;;39.60;11.80;;;;;;;4.83;100.00;-19293.19;5022386;28;20033;-74
2021/11/16 01:20:01;;;;;;;40.63;14.50;;;;;;;4.82;100.00;-19293.03;5023325;28;20021;-74
2021/11/16 01:22:26;;;;;;;35.60;11.67;;;;;;;4.75;100.00;-19291.19;5023333;28;20025;-74
2021/11/16 01:24:52;;;;;;;39.90;13.90;;;;;;;4.66;100.00;-19288.81;5022993;28;20393;-74
2021/11/16 01:27:19;;;;;;;42.07;13.70;;;;;;;4.60;100.00;-19287.22;5023043;28;20079;-74
2021/11/16 01:29:50;;;;;;;42.93;14.07;;;;;;;4.67;100.00;-19289.22;5022783;28;20055;-75
2021/11/16 01:34:52;;;;;;;44.10;14.77;;;;;;;4.75;100.00;-19291.06;5022977;28;20018;-74
2021/11/16 01:37:18;;;;;;;39.53;12.53;;;;;;;4.68;100.00;-19289.47;5023231;28;20025;-74
2021/11/16 01:39:43;;;;;;;51.87;14.73;;;;;;;4.62;100.00;-19287.88;5023287;28;20763;-75
2021/11/16 01:42:09;;;;;;;50.17;14.40;;;;;;;4.69;100.00;-19289.75;5017693;28;20395;-75
2021/11/16 01:44:35;;;;;;;48.37;15.10;;;;;;;4.68;100.00;-19289.47;5022198;28;20025;-75
2021/11/16 01:47:01;;;;;;;43.00;13.60;;;;;;;4.65;100.00;-19288.69;5017067;28;20082;-74
2021/11/16 01:49:26;;;;;;;46.00;15.33;;;;;;;4.67;100.00;-19289.22;5022557;28;20124;-74
2021/11/16 01:51:52;;;;;;;44.10;13.50;;;;;;;4.64;100.00;-19288.41;5022611;28;20043;-74
2021/11/16 01:54:17;;;;;;;44.30;13.90;;;;;;;4.63;100.00;-19288.16;5022271;28;20086;-75
2021/11/16 01:56:45;;;;;;;43.23;14.50;;;;;;;4.62;100.00;-19287.88;5022764;28;20537;-74
2021/11/16 01:59:11;;;;;;;44.03;13.33;;;;;;;4.73;100.00;-19290.53;5022888;28;20040;-74
2021/11/16 02:01:39;;;;;;;42.47;13.87;;;;;;;4.74;100.00;-19290.94;5022505;28;20394;-74
2021/11/16 02:04:05;;;;;;;40.60;14.37;;;;;;;4.82;100.00;-19292.91;5017528;28;20113;-74
2021/11/16 02:06:35;;;;;;;46.03;15.13;;;;;;;4.74;100.00;-19290.81;5022476;28;20492;-75
2021/11/16 02:09:03;;;;;;;39.93;13.13;;;;;;;4.78;100.00;-19291.84;5021367;28;20179;-73
2021/11/16 02:11:29;;;;;;;36.10;11.27;;;;;;;4.77;100.00;-19291.72;5022202;28;20112;-74
2021/11/16 02:13:55;;;;;;;38.30;12.87;;;;;;;4.68;100.00;-19289.47;5022539;28;20148;-74
2021/11/16 02:16:21;;;;;;;41.90;14.07;;;;;;;4.69;100.00;-19289.75;5022694;28;20024;-74
2021/11/16 02:18:47;;;;;;;38.60;12.97;;;;;;;4.71;100.00;-19290.25;5022651;28;20162;-74
2021/11/16 02:21:13;;;;;;;38.27;12.13;;;;;;;4.75;100.00;-19291.06;5022572;28;20067;-74
2021/11/16 02:23:40;;;;;;;39.73;13.57;;;;;;;4.71;100.00;-19290.25;5020427;28;20024;-74
2021/11/16 02:26:07;;;;;;;41.27;13.03;;;;;;;4.62;100.00;-19287.88;5018548;28;20555;-75
2021/11/16 02:28:33;;;;;;;28.27;10.27;;;;;;;4.73;100.00;-19290.66;5020404;28;20034;-74
2021/11/16 02:30:59;;;;;;;39.43;13.43;;;;;;;4.67;100.00;-19289.22;5016301;28;20033;-74
2021/11/16 02:33:26;;;;;;;44.37;14.83;;;;;;;4.63;100.00;-19288.16;5026801;28;20025;-74
2021/11/16 02:35:52;;;;;;;35.97;12.40;;;;;;;4.58;100.00;-19286.81;5022352;28;20022;-74
2021/11/16 02:38:18;;;;;;;35.13;12.50;;;;;;;4.68;100.00;-19289.47;5022428;28;20097;-74
2021/11/16 02:40:43;;;;;;;40.70;14.43;;;;;;;4.71;100.00;-19290.13;5021803;28;20021;-74
2021/11/16 02:43:10;;;;;;;39.50;13.70;;;;;;;4.60;100.00;-19287.34;5021565;28;20112;-74
2021/11/16 02:45:35;;;;;;;42.67;14.33;;;;;;;4.61;100.00;-19287.50;5020563;28;20389;-74
2021/11/16 02:48:11;;;;;;;33.17;11.30;;;;;;;4.59;100.00;-19287.09;5022008;28;20035;-74
2021/11/16 02:50:38;;;;;;;39.13;13.53;;;;;;;4.65;100.00;-19288.69;5021353;28;20021;-74
2021/11/16 02:53:04;;;;;;;36.97;12.53;;;;;;;4.58;100.00;-19286.81;5022246;28;20021;-75
2021/11/16 02:55:30;;;;;;;33.40;11.43;;;;;;;4.68;100.00;-19289.47;5021873;28;20032;-74
2021/11/16 02:57:55;;;;;;;37.50;13.10;;;;;;;4.67;100.00;-19289.22;5021772;28;20697;-74
2021/11/16 03:00:21;;;;;;;34.90;12.10;;;;;;;4.69;100.00;-19289.75;5021181;28;20048;-74
2021/11/16 03:02:48;;;;;;;42.70;12.80;;;;;;;4.70;100.00;-19290.00;5021494;28;20021;-75
2021/11/16 03:05:16;;;;;;;35.40;13.23;;;;;;;4.68;100.00;-19289.47;5021720;28;20438;-75
2021/11/16 03:07:56;;;;;;;36.30;13.43;;;;;;;4.72;100.00;-19290.41;5021604;28;20028;-75
2021/11/16 03:10:29;;;;;;;39.17;12.53;;;;;;;4.63;100.00;-19288.16;5021370;28;20029;-74
2021/11/16 03:12:55;;;;;;;38.70;11.47;;;;;;;4.64;100.00;-19288.28;5016710;28;20026;-74
2021/11/16 03:15:20;;;;;;;37.93;13.10;;;;;;;4.66;100.00;-19288.94;5021981;28;20101;-75
2021/11/16 03:17:47;;;;;;;37.07;12.27;;;;;;;4.57;100.00;-19286.56;5021980;28;20049;-75
2021/11/16 03:20:15;;;;;;;37.20;12.27;;;;;;;4.54;100.00;-19285.63;5021603;28;20060;-74
2021/11/16 03:22:51;;;;;;;38.23;13.07;;;;;;;4.50;100.00;-19284.72;5021846;28;20507;-75
2021/11/16 03:25:19;;;;;;;39.30;13.50;;;;;;;4.46;100.00;-19283.66;5021596;28;20367;-75
2021/11/16 03:27:46;;;;;;;36.80;14.17;;;;;;;4.46;100.00;-19283.66;5021783;28;20538;-75
2021/11/16 03:30:12;;;;;;;38.77;13.17;;;;;;;4.46;100.00;-19283.66;5021105;28;20660;-75
2021/11/16 03:32:37;;;;;;;45.63;14.70;;;;;;;4.45;100.00;-19283.38;5021774;28;20033;-75
2021/11/16 03:35:05;;;;;;;41.53;13.37;;;;;;;4.46;100.00;-19283.66;5021540;28;20108;-75
2021/11/16 03:37:39;;;;;;;41.67;14.73;;;;;;;4.48;100.00;-19284.03;5022445;28;20033;-75
2021/11/16 03:40:06;;;;;;;37.27;13.37;;;;;;;4.49;100.00;-19284.31;5025523;28;20021;-75
2021/11/16 03:42:34;;;;;;;43.10;13.77;;;;;;;4.47;100.00;-19283.78;5025349;28;20037;-75
2021/11/16 03:44:59;;;;;;;42.40;13.10;;;;;;;4.49;100.00;-19284.44;5025525;28;20095;-74
2021/11/16 03:47:25;;;;;;;34.77;12.30;;;;;;;4.46;100.00;-19283.66;5025297;28;20037;-74
2021/11/16 03:49:51;;;;;;;37.77;12.53;;;;;;;4.46;100.00;-19283.66;5025221;28;20025;-75
2021/11/16 03:52:21;;;;;;;35.37;12.33;;;;;;;4.42;100.00;-19282.59;5025461;28;20049;-75
2021/11/16 03:54:47;;;;;;;36.33;12.13;;;;;;;4.47;100.00;-19283.91;5025641;28;20386;-75
2021/11/16 03:57:12;;;;;;;34.63;11.50;;;;;;;4.56;100.00;-19286.28;5024870;28;20052;-74
2021/11/16 03:59:38;;;;;;;35.67;12.70;;;;;;;4.49;100.00;-19284.44;5024734;28;20052;-75
2021/11/16 04:02:03;;;;;;;36.57;12.97;;;;;;;4.54;100.00;-19285.75;5025383;28;20064;-75
2021/11/16 04:04:29;;;;;;;39.20;11.17;;;;;;;4.51;100.00;-19284.84;5025243;28;20040;-75
2021/11/16 04:06:54;;;;;;;36.13;13.57;;;;;;;4.51;100.00;-19284.97;5025091;28;20057;-75
2021/11/16 04:09:20;;;;;;;37.23;13.30;;;;;;;4.48;100.00;-19284.19;5027123;28;20030;-75
2021/11/16 04:11:46;;;;;;;34.10;12.10;;;;;;;4.46;100.00;-19283.66;5026726;28;20053;-75
2021/11/16 04:14:11;;;;;;;36.07;12.93;;;;;;;4.45;100.00;-19283.38;5024745;28;20029;-75
2021/11/16 04:16:37;;;;;;;35.93;12.23;;;;;;;4.39;100.00;-19281.78;5024756;28;20025;-74
2021/11/16 04:19:03;;;;;;;36.60;12.47;;;;;;;4.37;100.00;-19281.25;5024758;28;20021;-75
2021/11/16 04:21:28;;;;;;;41.23;13.87;;;;;;;4.45;100.00;-19283.25;5024712;28;20385;-75
2021/11/16 04:23:53;;;;;;;40.43;13.40;;;;;;;4.48;100.00;-19284.19;5024563;28;20018;-75
2021/11/16 04:26:19;;;;;;;36.93;13.27;;;;;;;4.48;100.00;-19284.03;5024313;28;20382;-74
2021/11/16 04:28:44;;;;;;;37.10;12.00;;;;;;;4.52;100.00;-19285.25;5021896;28;20029;-74
2021/11/16 04:31:10;;;;;;;36.43;13.37;;;;;;;4.50;100.00;-19284.72;5021497;28;20063;-74
2021/11/16 04:33:38;;;;;;;35.00;13.00;;;;;;;4.42;100.00;-19282.59;5024033;28;20017;-75
2021/11/16 04:36:04;;;;;;;33.80;11.57;;;;;;;4.38;100.00;-19281.53;5022266;28;20093;-74
2021/11/16 04:38:30;;;;;;;37.00;12.90;;;;;;;4.38;100.00;-19281.53;5012736;28;20076;-74
2021/11/16 04:40:57;;;;;;;38.53;13.10;;;;;;;4.41;100.00;-19282.31;5024384;28;20090;-74
2021/11/16 04:43:26;;;;;;;40.23;13.13;;;;;;;4.40;100.00;-19282.06;5024285;28;20105;-75
2021/11/16 04:45:59;;;;;;;36.67;12.00;;;;;;;4.33;100.00;-19280.19;5024237;28;20039;-75
2021/11/16 05:04:37;;;;;;;38.20;13.10;;;;;;;4.48;100.00;-19284.19;5016536;28;20040;-75
2021/11/16 05:07:08;;;;;;;36.23;12.53;;;;;;;4.45;100.00;-19283.38;5023935;28;20045;-75
2021/11/16 05:09:34;;;;;;;35.30;11.77;;;;;;;4.36;100.00;-19281.00;5024027;28;20022;-75
2021/11/16 05:11:59;;;;;;;33.47;12.43;;;;;;;4.42;100.00;-19282.59;5023673;28;20041;-75
2021/11/16 05:14:25;;;;;;;37.87;12.13;;;;;;;4.38;100.00;-19281.53;5023601;28;20021;-75
2021/11/16 05:16:50;;;;;;;36.83;11.63;;;;;;;4.39;100.00;-19281.78;5023420;28;20033;-74
2021/11/16 05:19:16;;;;;;;40.60;14.20;;;;;;;4.31;100.00;-19279.66;5023424;28;20021;-75
2021/11/16 05:21:41;;;;;;;39.33;12.70;;;;;;;4.28;100.00;-19279.00;5023419;28;20031;-75
2021/11/16 05:24:07;;;;;;;40.97;13.27;;;;;;;4.27;100.00;-19278.75;5023552;28;20025;-75
2021/11/16 05:26:32;;;;;;;37.23;12.97;;;;;;;4.27;100.00;-19278.63;5036397;28;20029;-75
2021/11/16 05:28:59;;;;;;;36.13;12.87;;;;;;;4.27;100.00;-19278.75;5023557;28;20029;-76
2021/11/16 05:31:25;;;;;;;38.97;12.90;;;;;;;4.27;100.00;-19278.63;5023140;28;20036;-75
2021/11/16 05:33:54;;;;;;;38.10;12.27;;;;;;;4.25;100.00;-19278.09;5022818;28;20028;-75
2021/11/16 05:36:20;;;;;;;42.40;14.23;;;;;;;4.27;100.00;-19278.63;5023425;28;20473;-75
2021/11/16 05:38:47;;;;;;;39.67;13.10;;;;;;;4.30;100.00;-19279.41;5023456;28;20698;-75
2021/11/16 05:41:14;;;;;;;36.67;12.13;;;;;;;4.29;100.00;-19279.13;5023075;28;20163;-75
2021/11/16 05:43:42;;;;;;;35.67;13.00;;;;;;;4.34;100.00;-19280.59;5022825;28;20147;-75
2021/11/16 05:46:08;;;;;;;36.53;12.00;;;;;;;4.32;100.00;-19280.06;5022332;28;20025;-75
2021/11/16 05:48:36;;;;;;;41.03;13.27;;;;;;;4.32;100.00;-19279.94;5023124;28;20029;-75
2021/11/16 05:51:02;;;;;;;39.07;12.37;;;;;;;4.28;100.00;-19278.88;5022767;28;20037;-73
2021/11/16 05:53:29;;;;;;;34.40;12.37;;;;;;;4.30;100.00;-19279.53;5022626;28;20072;-75
2021/11/16 05:55:55;;;;;;;30.13;11.93;;;;;;;4.30;100.00;-19279.41;5022843;28;20021;-75
2021/11/16 05:58:22;;;;;;;32.70;11.43;;;;;;;4.31;100.00;-19279.66;5023012;28;20079;-75
2021/11/16 06:00:49;;;;;;;38.00;12.07;;;;;;;4.27;100.00;-19278.63;5022447;28;20021;-75
2021/11/16 06:03:15;;;;;;;32.00;11.47;;;;;;;4.21;100.00;-19277.03;5022407;28;20021;-75
2021/11/16 06:05:40;;;;;;;35.63;13.30;;;;;;;4.25;100.00;-19278.09;5028525;28;20205;-75
2021/11/16 06:08:06;;;;;;;36.27;12.00;;;;;;;4.25;100.00;-19278.09;5022503;28;20561;-75
2021/11/16 06:10:33;;;;;;;32.93;11.70;;;;;;;4.24;100.00;-19277.81;5022122;28;20122;-75
2021/11/16 06:12:58;;;;;;;37.00;11.90;;;;;;;4.20;100.00;-19276.88;5022316;28;20021;-75
2021/11/16 06:15:24;;;;;;;39.13;12.17;;;;;;;4.24;100.00;-19277.81;5025979;28;20025;-74
2021/11/16 06:17:49;;;;;;;35.00;11.77;;;;;;;4.21;100.00;-19277.03;5022518;28;20385;-75
2021/11/16 06:20:21;;;;;;;41.03;13.93;;;;;;;4.23;100.00;-19277.56;5022009;28;20029;-75
2021/11/16 06:22:47;;;;;;;38.20;12.40;;;;;;;4.25;100.00;-19278.22;5019579;28;20445;-75
2021/11/16 06:25:13;;;;;;;39.00;11.93;;;;;;;4.26;100.00;-19278.34;5021639;28;20029;-75
2021/11/16 06:27:39;;;;;;;35.83;12.63;;;;;;;4.25;100.00;-19278.09;5022266;28;20179;-74
2021/11/16 06:30:06;;;;;;;33.33;11.83;;;;;;;4.24;100.00;-19277.94;5021091;28;20052;-75
2021/11/16 06:32:31;;;;;;;39.07;12.60;;;;;;;4.24;100.00;-19277.94;5021083;28;20118;-75
2021/11/16 06:34:57;;;;;;;41.77;13.27;;;;;;;4.25;100.00;-19278.09;5017896;28;20100;-75
2021/11/16 06:37:22;;;;;;;34.73;12.93;;;;;;;4.29;100.00;-19279.13;5020836;28;20034;-75
2021/11/16 06:39:48;;;;;;;35.00;12.30;;;;;;;4.30;100.00;-19279.41;5021775;28;20029;-75
2021/11/16 06:42:14;;;;;;;39.43;12.57;;;;;;;4.29;100.00;-19279.13;5021649;28;20029;-75
2021/11/16 06:44:41;;;;;;;38.70;11.70;;;;;;;4.27;100.00;-19278.63;5020668;28;20446;-75
2021/11/16 06:47:09;;;;;;;34.13;10.80;;;;;;;4.23;100.00;-19277.69;5022241;28;20060;-75
2021/11/16 06:49:39;;;;;;;30.53;10.63;;;;;;;4.25;100.00;-19278.09;5021448;28;20020;-75
2021/11/16 06:52:05;;;;;;;31.63;11.80;;;;;;;4.32;100.00;-19279.94;5008877;28;20645;-75
2021/11/16 06:54:30;;;;;;;32.43;10.53;;;;;;;4.28;100.00;-19279.00;5021865;28;20025;-75
2021/11/16 06:56:57;;;;;;;29.30;11.40;;;;;;;4.25;100.00;-19278.09;5021639;28;20572;-75
2021/11/16 06:59:24;;;;;;;35.33;12.27;;;;;;;4.18;100.00;-19276.34;5021879;28;20033;-75
2021/11/16 07:01:51;;;;;;;32.07;10.73;;;;;;;4.16;100.00;-19275.81;5021360;28;20473;-75
2021/11/16 07:04:16;;;;;;;26.40;11.80;;;;;;;4.21;100.00;-19277.16;5021409;28;20045;-74
2021/11/16 07:06:47;;;;;;;33.73;12.47;;;;;;;4.17;100.00;-19276.09;5021142;28;20135;-75
2021/11/16 07:09:14;;;;;;;31.57;11.13;;;;;;;4.19;100.00;-19276.50;5021870;28;20037;-75
2021/11/16 07:11:54;;;;;;;35.67;12.37;;;;;;;4.18;100.00;-19276.22;5021374;28;20033;-75
2021/11/16 07:14:24;;;;;;;29.53;10.20;;;;;;;4.22;100.00;-19277.28;5021470;28;20033;-75
2021/11/16 07:16:55;;;;;;;41.57;13.43;;;;;;;4.17;100.00;-19275.97;5021266;28;20068;-75
2021/11/16 07:19:37;;;;;;;41.70;13.03;;;;;;;4.26;100.00;-19278.47;5021614;28;20026;-75
2021/11/16 07:22:09;;;;;;;31.63;10.53;;;;;;;4.22;100.00;-19277.28;5021772;28;20120;-74
2021/11/16 07:24:44;;;;;;;30.13;10.57;;;;;;;4.21;100.00;-19277.03;5021568;28;20581;-75
2021/11/16 07:27:11;;;;;;;34.27;11.07;;;;;;;4.22;100.00;-19277.28;5021058;28;20171;-75
2021/11/16 07:29:49;;;;;;;36.00;11.90;;;;;;;4.17;100.00;-19276.09;5021337;28;20037;-75
2021/11/16 07:32:26;;;;;;;36.87;12.43;;;;;;;4.20;100.00;-19276.75;5020236;28;20312;-75
2021/11/16 07:34:56;;;;;;;38.20;13.27;;;;;;;4.14;100.00;-19275.16;5021200;28;20036;-75
2021/11/16 07:37:26;;;;;;;38.03;12.40;;;;;;;4.14;100.00;-19275.16;5021332;28;20042;-74
2021/11/16 07:40:02;;;;;;;36.00;12.60;;;;;;;4.11;100.00;-19274.63;5021265;28;20082;-75
2021/11/16 07:42:32;;;;;;;34.70;12.30;;;;;;;4.15;100.00;-19275.44;5008269;28;20033;-74
2021/11/16 07:45:10;;;;;;;38.87;13.00;;;;;;;4.13;100.00;-19274.91;5020756;28;20025;-75
2021/11/16 07:47:42;;;;;;;48.50;13.77;;;;;;;4.12;100.00;-19274.78;5021008;28;20530;-75
2021/11/16 07:50:10;;;;;;;41.53;13.55;;;;;;;4.13;100.00;-19274.91;5021065;28;20037;-75
2021/11/16 07:52:37;;;;;;;41.63;13.87;;;;;;;4.16;100.00;-19275.69;5021350;28;20041;-75
2021/11/16 07:55:04;;;;;;;38.67;12.40;;;;;;;4.14;100.00;-19275.31;5021405;28;20040;-74
2021/11/16 07:57:29;;;;;;;41.23;13.17;;;;;;;4.16;100.00;-19275.69;5021104;28;20581;-74
2021/11/16 07:59:55;;;;;;;35.83;12.47;;;;;;;4.19;100.00;-19276.50;5021412;28;20079;-74
2021/11/16 08:02:36;;;;;;;41.63;13.87;;;;;;;4.20;100.00;-19276.75;5021351;28;20108;-74
2021/11/16 08:05:27;;;;;;;44.83;12.57;;;;;;;4.20;100.00;-19276.88;5019921;28;20029;-75
2021/11/16 08:10:46;;;;;;;38.23;12.30;;;;;;;4.21;100.00;-19277.16;5021054;28;20374;-75
2021/11/16 08:13:16;;;;;;;42.03;13.70;;;;;;;4.20;100.00;-19276.88;5025404;28;20029;-74
2021/11/16 08:15:45;;;;;;;43.30;13.43;;;;;;;4.19;100.00;-19276.50;5029599;28;20053;-74
2021/11/16 08:18:15;;;;;;;40.20;13.37;;;;;;;4.17;100.00;-19276.09;5029467;28;20485;-75
2021/11/16 08:20:42;;;;;;;39.47;12.93;;;;;;;4.20;100.00;-19276.88;5029543;28;20466;-74
2021/11/16 08:23:08;;;;;;;40.93;12.60;;;;;;;4.27;100.00;-19278.63;5016614;28;20033;-74
2021/11/16 08:25:36;;;;;;;40.23;12.77;;;;;;;4.28;100.00;-19278.88;5031314;28;20021;-74
2021/11/16 08:28:04;;;;;;;44.17;12.77;;;;;;;4.31;100.00;-19279.66;5025290;28;20033;-74
2021/11/16 08:30:34;;;;;;;45.33;13.40;;;;;;;4.30;100.00;-19279.41;5024025;28;20037;-74
2021/11/16 08:33:01;;;;;;;46.50;14.43;;;;;;;4.29;100.00;-19279.13;5015672;28;20037;-74
2021/11/16 08:35:27;;;;;;;41.57;12.97;;;;;;;4.26;100.00;-19278.47;5024176;28;20033;-74
2021/11/16 08:37:57;;;;;;;43.20;12.07;;;;;;;4.30;100.00;-19279.53;5024484;28;20116;-74
2021/11/16 08:40:26;;;;;;;49.73;16.27;;;;;;;4.28;100.00;-19278.88;5023804;28;20152;-74
2021/11/16 08:42:58;;;;;;;38.70;13.10;;;;;;;4.31;100.00;-19279.81;5024053;28;20046;-74
2021/11/16 08:45:38;;;;;;;47.17;16.15;;;;;;;4.30;100.00;-19279.41;5024154;28;20022;-74
2021/11/16 08:48:04;;;;;;;43.33;14.30;;;;;;;4.31;100.00;-19279.66;5024074;28;20113;-74
2021/11/16 08:50:35;;;;;;;47.97;14.20;;;;;;;4.28;100.00;-19279.00;5021094;28;20180;-74
2021/11/16 08:53:10;;;;;;;42.08;15.73;;;;;;;4.30;100.00;-19279.41;5023500;28;20655;-74
2021/11/16 08:55:39;;;;;;;40.67;12.57;;;;;;;4.29;100.00;-19279.13;5024159;28;20104;-75
2021/11/16 08:58:07;;;;;;;47.43;14.53;;;;;;;4.28;100.00;-19278.88;5023868;28;20033;-74
2021/11/16 09:00:38;;;;;;;41.63;12.23;;;;;;;4.29;100.00;-19279.13;5023747;28;20049;-74
2021/11/16 09:03:12;;;;;;;43.47;13.50;;;;;;;4.29;100.00;-19279.28;5018749;28;20096;-74
2021/11/16 09:05:47;;;;;;;42.90;14.03;;;;;;;4.32;100.00;-19279.94;5013424;28;20017;-75
2021/11/16 09:08:24;;;;;;;42.90;13.43;;;;;;;4.36;100.00;-19281.00;5024139;28;20033;-74
2021/11/16 09:10:55;;;;;;;39.30;13.00;;;;;;;4.39;100.00;-19281.78;5023409;28;20040;-75
2021/11/16 09:13:22;;;;;;;43.97;13.27;;;;;;;4.35;100.00;-19280.72;5023724;28;20427;-74
2021/11/16 09:15:49;;;;;;;39.07;12.40;;;;;;;4.41;100.00;-19282.44;5023620;28;20031;-74
2021/11/16 09:18:19;;;;;;;39.57;11.43;;;;;;;4.39;100.00;-19281.78;5010458;28;20036;-75
2021/11/16 09:20:55;;;;;;;33.57;10.93;;;;;;;4.43;100.00;-19282.84;5023209;28;20751;-74
2021/11/16 09:23:47;;;;;;;40.87;12.67;;;;;;;4.41;100.00;-19282.31;5023378;28;20033;-75
2021/11/16 09:26:36;;;;;;;35.50;11.00;;;;;;;4.47;100.00;-19283.91;4922939;29;20043;-74
2021/11/16 09:29:17;;;;;;;35.03;11.43;;;;;;;4.44;100.00;-19283.13;4922854;29;20050;-75
2021/11/16 09:31:58;;;;;;;42.20;11.60;;;;;;;4.38;100.00;-19281.53;4923176;29;20611;-74
2021/11/16 09:34:33;;;;;;;36.83;11.30;;;;;;;4.42;100.00;-19282.59;4922975;29;20039;-74
2021/11/16 09:37:13;;;;;;;37.97;11.77;;;;;;;4.44;100.00;-19283.13;4922653;29;20118;-74
2021/11/16 09:39:44;;;;;;;31.53;10.60;;;;;;;4.43;100.00;-19282.84;4922580;29;20119;-75
2021/11/16 09:42:14;;;;;;;31.47;10.10;;;;;;;4.47;100.00;-19283.91;4923085;29;20031;-75
2021/11/16 09:44:47;;;;;;;30.57;10.17;;;;;;;4.48;100.00;-19284.19;4922397;29;20043;-74
2021/11/16 09:47:22;;;;;;;29.53;9.87;;;;;;;4.43;100.00;-19282.72;4922671;29;20073;-75
2021/11/16 09:50:00;;;;;;;28.87;9.27;;;;;;;4.37;100.00;-19281.25;4924477;29;20084;-75
2021/11/16 09:52:45;;;;;;;28.03;9.90;;;;;;;4.32;100.00;-19279.94;4910722;29;20421;-75
2021/11/16 09:55:37;;;;;;;35.70;11.67;;;;;;;-145.18;100.00;60484.78;4922472;29;20122;-75
2021/11/16 09:58:19;;;;;;;31.37;10.10;;;;;;;-145.18;100.00;60484.78;4922619;29;20543;-75
2021/11/16 10:00:46;;;;;;;39.77;10.47;;;;;;;-145.18;100.00;60484.78;4922185;29;20039;-75
2021/11/16 10:03:18;;;;;;;33.23;11.43;;;;;;;-145.18;100.00;60484.78;4963052;28;20305;-75
2021/11/16 10:05:47;;;;;;;32.53;10.68;;;;;;;-145.18;100.00;60484.78;5022818;28;20026;-75
2021/11/16 10:08:15;;;;;;;37.13;10.70;;;;;;;-145.18;100.00;60484.78;5022530;28;20065;-75
2021/11/16 10:10:45;;;;;;;33.43;11.03;;;;;;;-145.18;100.00;60484.78;5022464;28;20037;-75
2021/11/16 10:13:16;;;;;;;33.03;10.93;;;;;;;-145.18;100.00;60484.78;5022621;28;20116;-75
2021/11/16 10:15:49;;;;;;;35.50;10.87;;;;;;;-145.18;100.00;60484.78;5022335;28;20064;-75
2021/11/16 10:18:16;;;;;;;36.67;10.23;;;;;;;-145.18;100.00;60484.78;5022199;28;20280;-75
2021/11/16 10:20:43;;;;;;;34.70;10.27;;;;;;;-145.18;100.00;60484.78;5022021;28;20483;-74
2021/11/16 10:23:11;;;;;;;30.87;9.70;;;;;;;-145.18;100.00;60484.78;5022515;28;20025;-75
2021/11/16 10:25:43;;;;;;;31.47;10.23;;;;;;;-145.18;100.00;60484.78;5018841;28;20043;-74
2021/11/16 10:28:11;;;;;;;43.55;10.63;;;;;;;-145.18;100.00;60484.78;5011713;28;20025;-75
2021/11/16 10:30:38;;;;;;;33.77;9.87;;;;;;;-145.18;100.00;60484.78;5021290;28;20044;-75
2021/11/16 10:33:17;;;;;;;42.63;11.77;;;;;;;-145.18;100.00;60484.78;5021713;28;20025;-75
2021/11/16 10:35:50;;;;;;;37.57;12.13;;;;;;;-145.18;100.00;60484.78;5021400;28;20031;-75
2021/11/16 10:38:20;;;;;;;;;;;;;;;-145.18;100.00;60484.78;5022237;28;20028;-75
2021/11/16 10:40:46;;;;;;;28.87;9.67;;;;;;;-145.18;100.00;60484.78;5022012;28;19912;-74
2021/11/16 10:43:11;;;;;;;31.43;9.70;;;;;;;-145.18;100.00;60484.78;5022145;28;20492;-75
2021/11/16 10:45:44;;;;;;;28.23;9.63;;;;;;;-145.18;100.00;60484.78;5021867;28;20026;-75
2021/11/16 10:48:12;;;;;;;35.38;11.20;;;;;;;-145.18;100.00;60484.78;5013628;28;20037;-75
2021/11/16 10:50:40;;;;;;;35.90;10.47;;;;;;;-145.18;100.00;60484.78;5015586;28;20040;-75
2021/11/16 10:53:12;;;;;;;37.17;11.27;;;;;;;-145.18;100.00;60484.78;5021869;28;20387;-75
2021/11/16 10:55:45;;;;;;;37.95;11.05;;;;;;;-145.18;100.00;60484.78;5021409;28;20045;-75
2021/11/16 10:58:13;;;;;;;34.40;11.17;;;;;;;-145.18;100.00;60484.78;5021606;28;20191;-75
2021/11/16 11:00:47;;;;;;;37.43;11.80;;;;;;;-145.18;100.00;60484.78;5021872;28;20140;-75
2021/11/16 11:03:21;;;;;;;40.20;12.43;;;;;;;-145.18;100.00;60484.78;5021038;28;20029;-74
2021/11/16 11:05:49;;;;;;;43.43;11.33;;;;;;;-145.18;100.00;60484.78;5021667;28;20056;-75
2021/11/16 11:08:35;;;;;;;46.65;12.63;;;;;;;-145.18;100.00;60484.78;5021392;28;20053;-74
2021/11/16 11:11:02;;;;;;;42.85;11.45;;;;;;;-145.18;100.00;60484.78;5021680;28;20449;-74
2021/11/16 11:13:29;;;;;;;42.93;13.20;;;;;;;-145.18;100.00;60484.78;5021415;28;20103;-75
2021/11/16 11:15:56;;;;;;;39.97;11.50;;;;;;;-145.18;100.00;60484.78;5021212;28;20037;-74
2021/11/16 11:18:39;;;;;;;43.60;11.73;;;;;;;-145.18;100.00;60484.78;5021751;28;20117;-75
2021/11/16 11:21:09;;;;;;;34.47;10.83;;;;;;;-145.18;100.00;60484.78;5021391;28;20127;-75
2021/11/16 11:23:46;;;;;;;39.53;11.00;;;;;;;-145.18;100.00;60484.78;5021444;28;20044;-75
2021/11/16 11:26:39;;;;;;;41.03;12.20;;;;;;;-145.18;100.00;60484.78;5021358;28;20029;-75
2021/11/16 11:29:22;;;;;;;34.37;11.70;;;;;;;-145.18;100.00;60484.78;5021178;28;20037;-75
2021/11/16 11:32:09;;;;;;;41.47;11.77;;;;;;;-145.18;100.00;60484.78;5021286;28;20099;-75
2021/11/16 11:35:00;;;;;;;38.13;10.73;;;;;;;-145.18;100.00;60484.78;5008923;28;20118;-74
2021/11/16 11:37:55;;;;;;;33.67;9.43;;;;;;;-145.18;100.00;60484.78;4979067;28;20074;-74